Terminal Aerodrome Forecast
Issued by NWS

Home | Current Version | Previous Version | Text Only | Print | Product List | Glossary On
Versions: 1 2 3 4 5 6 7 8 9 10 11 12 13 14 15 16 17 18 19 20 21 22 23 24 25 26 27 28
000
FTAK31 PANC 182010 AAA
TAFAHO
TAF AMD
PAHO 182010Z 1820/1918 07010KT P6SM -RA FEW006 SCT030 OVC050
      TEMPO 1820/1823 BKN006
     FM190600 34005KT P6SM VCSH SCT040 BKN060
     FM191200 32005KT P6SM -RA BKN035 OVC050=

USA.gov is the U.S. government's official web portal to all federal, state and local government web resources and services.